sensor_id;sensor_type;location;lat;lon;timestamp;P1;durP1;ratioP1;P2;durP2;ratioP2
73428;SDS011;61643;49.564;17.412;2023-02-01T00:00:30;4.80;;;2.30;;
73428;SDS011;61643;49.564;17.412;2023-02-01T00:02:58;7.40;;;2.53;;
73428;SDS011;61643;49.564;17.412;2023-02-01T00:05:23;4.47;;;2.40;;
73428;SDS011;61643;49.564;17.412;2023-02-01T00:07:48;2.83;;;1.77;;
73428;SDS011;61643;49.564;17.412;2023-02-01T00:10:14;3.80;;;1.92;;
73428;SDS011;61643;49.564;17.412;2023-02-01T00:12:39;4.35;;;2.30;;
73428;SDS011;61643;49.564;17.412;2023-02-01T00:15:05;5.27;;;2.40;;
73428;SDS011;61643;49.564;17.412;2023-02-01T00:17:31;3.38;;;2.00;;
73428;SDS011;61643;49.564;17.412;2023-02-01T00:19:56;4.37;;;2.10;;
73428;SDS011;61643;49.564;17.412;2023-02-01T00:22:21;3.80;;;2.20;;
73428;SDS011;61643;49.564;17.412;2023-02-01T00:24:47;4.23;;;2.40;;
73428;SDS011;61643;49.564;17.412;2023-02-01T00:27:12;2.93;;;1.77;;
73428;SDS011;61643;49.564;17.412;2023-02-01T00:29:42;2.53;;;1.83;;
73428;SDS011;61643;49.564;17.412;2023-02-01T00:32:08;4.95;;;2.22;;
73428;SDS011;61643;49.564;17.412;2023-02-01T00:34:34;3.53;;;2.20;;
73428;SDS011;61643;49.564;17.412;2023-02-01T00:36:59;3.97;;;2.30;;
73428;SDS011;61643;49.564;17.412;2023-02-01T00:39:25;4.40;;;2.00;;
73428;SDS011;61643;49.564;17.412;2023-02-01T00:41:50;3.10;;;2.10;;
73428;SDS011;61643;49.564;17.412;2023-02-01T00:44:16;3.88;;;2.20;;
73428;SDS011;61643;49.564;17.412;2023-02-01T00:46:41;4.70;;;2.20;;
73428;SDS011;61643;49.564;17.412;2023-02-01T00:49:07;4.63;;;2.05;;
73428;SDS011;61643;49.564;17.412;2023-02-01T00:51:34;5.57;;;1.80;;
73428;SDS011;61643;49.564;17.412;2023-02-01T00:54:00;3.53;;;2.30;;
73428;SDS011;61643;49.564;17.412;2023-02-01T00:56:25;3.10;;;1.73;;
73428;SDS011;61643;49.564;17.412;2023-02-01T00:58:52;4.20;;;2.15;;
73428;SDS011;61643;49.564;17.412;2023-02-01T01:01:19;2.38;;;1.80;;
73428;SDS011;61643;49.564;17.412;2023-02-01T01:03:50;2.53;;;1.65;;
73428;SDS011;61643;49.564;17.412;2023-02-01T01:06:24;6.53;;;2.00;;
73428;SDS011;61643;49.564;17.412;2023-02-01T01:08:54;5.80;;;2.33;;
73428;SDS011;61643;49.564;17.412;2023-02-01T01:11:22;6.72;;;2.00;;
73428;SDS011;61643;49.564;17.412;2023-02-01T01:13:51;2.45;;;1.92;;
73428;SDS011;61643;49.564;17.412;2023-02-01T01:16:18;2.40;;;1.73;;
73428;SDS011;61643;49.564;17.412;2023-02-01T01:18:44;3.33;;;1.90;;
73428;SDS011;61643;49.564;17.412;2023-02-01T01:21:11;4.68;;;2.13;;
73428;SDS011;61643;49.564;17.412;2023-02-01T01:23:37;4.28;;;2.13;;
73428;SDS011;61643;49.564;17.412;2023-02-01T01:26:06;2.57;;;1.73;;
73428;SDS011;61643;49.564;17.412;2023-02-01T01:28:39;2.63;;;2.03;;
73428;SDS011;61643;49.564;17.412;2023-02-01T01:31:07;2.83;;;1.60;;
73428;SDS011;61643;49.564;17.412;2023-02-01T01:33:34;3.08;;;1.20;;
73428;SDS011;61643;49.564;17.412;2023-02-01T01:35:59;2.80;;;1.00;;
73428;SDS011;61643;49.564;17.412;2023-02-01T01:38:25;1.60;;;1.10;;
73428;SDS011;61643;49.564;17.412;2023-02-01T01:40:50;1.00;;;0.90;;
73428;SDS011;61643;49.564;17.412;2023-02-01T01:43:16;2.22;;;1.08;;
73428;SDS011;61643;49.564;17.412;2023-02-01T01:45:46;1.80;;;1.10;;
73428;SDS011;61643;49.564;17.412;2023-02-01T01:50:47;1.67;;;0.88;;
73428;SDS011;61643;49.564;17.412;2023-02-01T01:53:18;1.60;;;1.00;;
73428;SDS011;61643;49.564;17.412;2023-02-01T01:55:47;3.25;;;1.20;;
73428;SDS011;61643;49.564;17.412;2023-02-01T01:58:16;2.63;;;1.20;;
73428;SDS011;61643;49.564;17.412;2023-02-01T02:00:44;2.35;;;1.45;;
73428;SDS011;61643;49.564;17.412;2023-02-01T02:03:16;2.40;;;1.40;;
73428;SDS011;61643;49.564;17.412;2023-02-01T02:05:44;1.63;;;1.02;;
73428;SDS011;61643;49.564;17.412;2023-02-01T02:08:10;2.35;;;1.40;;
73428;SDS011;61643;49.564;17.412;2023-02-01T02:10:36;2.60;;;1.40;;
73428;SDS011;61643;49.564;17.412;2023-02-01T02:13:21;2.83;;;1.35;;
73428;SDS011;61643;49.564;17.412;2023-02-01T02:15:51;3.40;;;1.67;;
73428;SDS011;61643;49.564;17.412;2023-02-01T02:18:25;4.00;;;1.50;;
73428;SDS011;61643;49.564;17.412;2023-02-01T02:29:17;3.05;;;1.80;;
73428;SDS011;61643;49.564;17.412;2023-02-01T02:37:42;3.17;;;1.67;;
73428;SDS011;61643;49.564;17.412;2023-02-01T02:40:20;3.15;;;1.55;;
73428;SDS011;61643;49.564;17.412;2023-02-01T02:48:44;2.38;;;1.40;;
73428;SDS011;61643;49.564;17.412;2023-02-01T02:51:27;2.83;;;1.90;;
73428;SDS011;61643;49.564;17.412;2023-02-01T02:54:19;2.65;;;1.60;;
73428;SDS011;61643;49.564;17.412;2023-02-01T02:57:07;2.50;;;1.33;;
73428;SDS011;61643;49.564;17.412;2023-02-01T02:59:54;2.25;;;1.60;;
73428;SDS011;61643;49.564;17.412;2023-02-01T03:02:40;2.72;;;1.40;;
73428;SDS011;61643;49.564;17.412;2023-02-01T03:05:24;3.53;;;1.55;;
73428;SDS011;61643;49.564;17.412;2023-02-01T03:08:10;2.72;;;1.70;;
73428;SDS011;61643;49.564;17.412;2023-02-01T03:21:26;2.72;;;1.50;;
73428;SDS011;61643;49.564;17.412;2023-02-01T03:23:55;3.25;;;1.60;;
73428;SDS011;61643;49.564;17.412;2023-02-01T03:26:24;6.05;;;1.67;;
73428;SDS011;61643;49.564;17.412;2023-02-01T03:28:55;3.10;;;1.40;;
73428;SDS011;61643;49.564;17.412;2023-02-01T03:31:25;2.05;;;1.42;;
73428;SDS011;61643;49.564;17.412;2023-02-01T03:33:52;6.80;;;2.00;;
73428;SDS011;61643;49.564;17.412;2023-02-01T03:39:02;3.10;;;1.30;;
73428;SDS011;61643;49.564;17.412;2023-02-01T03:41:44;4.40;;;1.90;;
73428;SDS011;61643;49.564;17.412;2023-02-01T03:44:29;4.80;;;1.55;;
73428;SDS011;61643;49.564;17.412;2023-02-01T03:47:02;4.25;;;1.45;;
73428;SDS011;61643;49.564;17.412;2023-02-01T03:49:34;4.40;;;1.30;;
73428;SDS011;61643;49.564;17.412;2023-02-01T03:52:02;1.80;;;1.15;;
73428;SDS011;61643;49.564;17.412;2023-02-01T03:54:30;2.45;;;1.40;;
73428;SDS011;61643;49.564;17.412;2023-02-01T03:56:57;5.88;;;1.70;;
73428;SDS011;61643;49.564;17.412;2023-02-01T03:59:27;3.78;;;1.15;;
73428;SDS011;61643;49.564;17.412;2023-02-01T04:01:52;3.37;;;1.40;;
73428;SDS011;61643;49.564;17.412;2023-02-01T04:04:18;4.43;;;1.42;;
73428;SDS011;61643;49.564;17.412;2023-02-01T04:06:49;5.45;;;1.75;;
73428;SDS011;61643;49.564;17.412;2023-02-01T04:09:15;5.15;;;1.33;;
73428;SDS011;61643;49.564;17.412;2023-02-01T04:11:41;5.45;;;1.48;;
73428;SDS011;61643;49.564;17.412;2023-02-01T04:14:07;3.55;;;1.50;;
73428;SDS011;61643;49.564;17.412;2023-02-01T04:16:33;2.78;;;1.10;;
73428;SDS011;61643;49.564;17.412;2023-02-01T04:18:59;3.90;;;1.45;;
73428;SDS011;61643;49.564;17.412;2023-02-01T04:21:25;3.50;;;1.30;;
73428;SDS011;61643;49.564;17.412;2023-02-01T04:23:50;2.55;;;1.20;;
73428;SDS011;61643;49.564;17.412;2023-02-01T04:26:16;1.80;;;1.40;;
73428;SDS011;61643;49.564;17.412;2023-02-01T04:28:42;3.13;;;1.60;;
73428;SDS011;61643;49.564;17.412;2023-02-01T04:31:07;4.03;;;1.40;;
73428;SDS011;61643;49.564;17.412;2023-02-01T04:33:33;3.90;;;1.73;;
73428;SDS011;61643;49.564;17.412;2023-02-01T04:35:58;3.40;;;1.48;;
73428;SDS011;61643;49.564;17.412;2023-02-01T04:38:24;4.78;;;2.05;;
73428;SDS011;61643;49.564;17.412;2023-02-01T04:40:50;3.25;;;1.67;;
73428;SDS011;61643;49.564;17.412;2023-02-01T04:43:16;4.25;;;2.05;;
73428;SDS011;61643;49.564;17.412;2023-02-01T04:45:46;4.53;;;1.40;;
73428;SDS011;61643;49.564;17.412;2023-02-01T04:48:13;2.85;;;1.10;;
73428;SDS011;61643;49.564;17.412;2023-02-01T04:50:39;5.53;;;1.80;;
73428;SDS011;61643;49.564;17.412;2023-02-01T04:53:04;7.57;;;3.30;;
73428;SDS011;61643;49.564;17.412;2023-02-01T04:55:29;10.23;;;4.47;;
73428;SDS011;61643;49.564;17.412;2023-02-01T04:57:55;8.18;;;3.85;;
73428;SDS011;61643;49.564;17.412;2023-02-01T05:00:21;4.80;;;2.25;;
73428;SDS011;61643;49.564;17.412;2023-02-01T05:02:47;5.27;;;2.30;;
73428;SDS011;61643;49.564;17.412;2023-02-01T05:05:12;7.33;;;2.83;;
73428;SDS011;61643;49.564;17.412;2023-02-01T05:07:37;5.27;;;2.50;;
73428;SDS011;61643;49.564;17.412;2023-02-01T05:10:03;4.00;;;2.10;;
73428;SDS011;61643;49.564;17.412;2023-02-01T05:12:28;5.47;;;2.15;;
73428;SDS011;61643;49.564;17.412;2023-02-01T05:15:12;4.90;;;2.42;;
73428;SDS011;61643;49.564;17.412;2023-02-01T05:17:38;3.30;;;2.07;;
73428;SDS011;61643;49.564;17.412;2023-02-01T05:20:05;4.30;;;2.13;;
73428;SDS011;61643;49.564;17.412;2023-02-01T05:22:31;5.55;;;2.33;;
73428;SDS011;61643;49.564;17.412;2023-02-01T05:24:56;5.43;;;2.50;;
73428;SDS011;61643;49.564;17.412;2023-02-01T05:27:22;5.20;;;2.23;;
73428;SDS011;61643;49.564;17.412;2023-02-01T05:29:47;5.07;;;2.13;;
73428;SDS011;61643;49.564;17.412;2023-02-01T05:32:12;6.13;;;2.57;;
73428;SDS011;61643;49.564;17.412;2023-02-01T05:34:38;4.00;;;2.23;;
73428;SDS011;61643;49.564;17.412;2023-02-01T05:37:03;3.53;;;1.93;;
73428;SDS011;61643;49.564;17.412;2023-02-01T05:39:29;5.20;;;2.03;;
73428;SDS011;61643;49.564;17.412;2023-02-01T05:41:54;4.50;;;2.10;;
73428;SDS011;61643;49.564;17.412;2023-02-01T05:44:19;3.37;;;1.60;;
73428;SDS011;61643;49.564;17.412;2023-02-01T05:46:45;5.50;;;1.67;;
73428;SDS011;61643;49.564;17.412;2023-02-01T05:49:10;6.27;;;1.43;;
73428;SDS011;61643;49.564;17.412;2023-02-01T05:51:35;4.28;;;1.42;;
73428;SDS011;61643;49.564;17.412;2023-02-01T05:54:01;4.57;;;1.60;;
73428;SDS011;61643;49.564;17.412;2023-02-01T05:56:26;5.17;;;1.40;;
73428;SDS011;61643;49.564;17.412;2023-02-01T05:58:51;2.93;;;1.30;;
73428;SDS011;61643;49.564;17.412;2023-02-01T06:01:17;11.23;;;3.57;;
73428;SDS011;61643;49.564;17.412;2023-02-01T06:03:42;80.23;;;23.27;;
73428;SDS011;61643;49.564;17.412;2023-02-01T06:06:08;50.58;;;16.35;;
73428;SDS011;61643;49.564;17.412;2023-02-01T06:08:33;17.87;;;6.07;;
73428;SDS011;61643;49.564;17.412;2023-02-01T06:11:03;5.40;;;1.73;;
73428;SDS011;61643;49.564;17.412;2023-02-01T06:13:30;4.20;;;1.60;;
73428;SDS011;61643;49.564;17.412;2023-02-01T06:15:55;3.60;;;1.50;;
73428;SDS011;61643;49.564;17.412;2023-02-01T06:18:22;2.90;;;1.52;;
73428;SDS011;61643;49.564;17.412;2023-02-01T06:20:58;2.47;;;1.40;;
73428;SDS011;61643;49.564;17.412;2023-02-01T06:23:28;3.78;;;1.40;;
73428;SDS011;61643;49.564;17.412;2023-02-01T06:25:58;4.00;;;1.70;;
73428;SDS011;61643;49.564;17.412;2023-02-01T06:28:28;3.47;;;1.67;;
73428;SDS011;61643;49.564;17.412;2023-02-01T06:30:55;3.90;;;1.40;;
73428;SDS011;61643;49.564;17.412;2023-02-01T06:33:20;6.13;;;1.45;;
73428;SDS011;61643;49.564;17.412;2023-02-01T06:35:46;6.05;;;2.00;;
73428;SDS011;61643;49.564;17.412;2023-02-01T06:38:12;5.22;;;2.15;;
73428;SDS011;61643;49.564;17.412;2023-02-01T06:40:38;6.07;;;1.58;;
73428;SDS011;61643;49.564;17.412;2023-02-01T06:43:04;3.35;;;1.60;;
73428;SDS011;61643;49.564;17.412;2023-02-01T06:45:30;3.35;;;1.70;;
73428;SDS011;61643;49.564;17.412;2023-02-01T06:47:55;3.33;;;1.63;;
73428;SDS011;61643;49.564;17.412;2023-02-01T06:50:21;2.67;;;1.40;;
73428;SDS011;61643;49.564;17.412;2023-02-01T06:52:46;3.75;;;1.60;;
73428;SDS011;61643;49.564;17.412;2023-02-01T06:55:12;3.80;;;1.27;;
73428;SDS011;61643;49.564;17.412;2023-02-01T06:57:38;2.78;;;1.60;;
73428;SDS011;61643;49.564;17.412;2023-02-01T07:00:03;4.32;;;1.70;;
73428;SDS011;61643;49.564;17.412;2023-02-01T07:02:30;3.55;;;1.80;;
73428;SDS011;61643;49.564;17.412;2023-02-01T07:04:55;6.53;;;2.00;;
73428;SDS011;61643;49.564;17.412;2023-02-01T07:07:21;5.45;;;1.92;;
73428;SDS011;61643;49.564;17.412;2023-02-01T07:09:47;5.22;;;1.92;;
73428;SDS011;61643;49.564;17.412;2023-02-01T07:12:16;3.75;;;1.90;;
73428;SDS011;61643;49.564;17.412;2023-02-01T07:14:41;5.72;;;2.10;;
73428;SDS011;61643;49.564;17.412;2023-02-01T07:17:07;2.80;;;1.60;;
73428;SDS011;61643;49.564;17.412;2023-02-01T07:19:32;3.30;;;1.90;;
73428;SDS011;61643;49.564;17.412;2023-02-01T07:21:58;6.15;;;2.10;;
73428;SDS011;61643;49.564;17.412;2023-02-01T07:24:23;4.18;;;2.70;;
73428;SDS011;61643;49.564;17.412;2023-02-01T07:26:48;6.32;;;2.72;;
73428;SDS011;61643;49.564;17.412;2023-02-01T07:29:16;7.22;;;2.10;;
73428;SDS011;61643;49.564;17.412;2023-02-01T07:31:42;4.90;;;1.48;;
73428;SDS011;61643;49.564;17.412;2023-02-01T07:34:07;3.77;;;1.50;;
73428;SDS011;61643;49.564;17.412;2023-02-01T07:36:32;2.47;;;1.40;;
73428;SDS011;61643;49.564;17.412;2023-02-01T07:38:59;2.08;;;1.45;;
73428;SDS011;61643;49.564;17.412;2023-02-01T07:41:24;4.60;;;1.40;;
73428;SDS011;61643;49.564;17.412;2023-02-01T07:43:52;4.20;;;1.60;;
73428;SDS011;61643;49.564;17.412;2023-02-01T07:46:18;5.95;;;1.75;;
73428;SDS011;61643;49.564;17.412;2023-02-01T07:48:43;5.10;;;1.40;;
73428;SDS011;61643;49.564;17.412;2023-02-01T07:51:11;10.30;;;2.00;;
73428;SDS011;61643;49.564;17.412;2023-02-01T07:53:38;3.28;;;1.25;;
73428;SDS011;61643;49.564;17.412;2023-02-01T07:56:08;3.92;;;1.05;;
73428;SDS011;61643;49.564;17.412;2023-02-01T07:58:36;3.17;;;1.15;;
73428;SDS011;61643;49.564;17.412;2023-02-01T08:01:01;3.85;;;1.38;;
73428;SDS011;61643;49.564;17.412;2023-02-01T08:03:45;4.30;;;1.25;;
73428;SDS011;61643;49.564;17.412;2023-02-01T08:06:14;6.32;;;1.60;;
73428;SDS011;61643;49.564;17.412;2023-02-01T08:08:40;5.90;;;1.50;;
73428;SDS011;61643;49.564;17.412;2023-02-01T08:11:05;3.83;;;1.13;;
73428;SDS011;61643;49.564;17.412;2023-02-01T08:13:32;2.97;;;1.50;;
73428;SDS011;61643;49.564;17.412;2023-02-01T08:15:59;3.58;;;1.50;;
73428;SDS011;61643;49.564;17.412;2023-02-01T08:18:25;5.32;;;1.80;;
73428;SDS011;61643;49.564;17.412;2023-02-01T08:20:51;3.35;;;1.55;;
73428;SDS011;61643;49.564;17.412;2023-02-01T08:23:17;4.88;;;1.50;;
73428;SDS011;61643;49.564;17.412;2023-02-01T08:25:42;3.60;;;1.90;;
73428;SDS011;61643;49.564;17.412;2023-02-01T08:28:09;4.53;;;1.80;;
73428;SDS011;61643;49.564;17.412;2023-02-01T08:30:38;2.45;;;1.42;;
73428;SDS011;61643;49.564;17.412;2023-02-01T08:33:05;3.35;;;1.70;;
73428;SDS011;61643;49.564;17.412;2023-02-01T08:35:36;4.57;;;1.60;;
73428;SDS011;61643;49.564;17.412;2023-02-01T08:38:02;4.07;;;1.80;;
73428;SDS011;61643;49.564;17.412;2023-02-01T08:40:28;4.80;;;1.73;;
73428;SDS011;61643;49.564;17.412;2023-02-01T08:42:54;4.88;;;1.80;;
73428;SDS011;61643;49.564;17.412;2023-02-01T08:45:20;6.57;;;1.90;;
73428;SDS011;61643;49.564;17.412;2023-02-01T08:47:51;3.70;;;2.25;;
73428;SDS011;61643;49.564;17.412;2023-02-01T08:50:17;9.10;;;2.65;;
73428;SDS011;61643;49.564;17.412;2023-02-01T08:52:43;5.07;;;2.60;;
73428;SDS011;61643;49.564;17.412;2023-02-01T08:55:09;5.32;;;2.33;;
73428;SDS011;61643;49.564;17.412;2023-02-01T08:57:35;4.75;;;2.42;;
73428;SDS011;61643;49.564;17.412;2023-02-01T09:00:00;3.73;;;1.80;;
73428;SDS011;61643;49.564;17.412;2023-02-01T09:02:26;3.42;;;2.05;;
73428;SDS011;61643;49.564;17.412;2023-02-01T09:04:52;5.43;;;2.28;;
73428;SDS011;61643;49.564;17.412;2023-02-01T09:07:17;7.23;;;2.27;;
73428;SDS011;61643;49.564;17.412;2023-02-01T09:09:43;4.82;;;2.50;;
73428;SDS011;61643;49.564;17.412;2023-02-01T09:12:09;4.68;;;1.92;;
73428;SDS011;61643;49.564;17.412;2023-02-01T09:14:34;5.03;;;2.20;;
73428;SDS011;61643;49.564;17.412;2023-02-01T09:17:00;4.07;;;2.13;;
73428;SDS011;61643;49.564;17.412;2023-02-01T09:19:25;3.05;;;1.70;;
73428;SDS011;61643;49.564;17.412;2023-02-01T09:21:51;2.97;;;1.60;;
73428;SDS011;61643;49.564;17.412;2023-02-01T09:24:16;4.97;;;1.97;;
73428;SDS011;61643;49.564;17.412;2023-02-01T09:26:42;5.38;;;2.10;;
73428;SDS011;61643;49.564;17.412;2023-02-01T09:29:07;4.43;;;1.90;;
73428;SDS011;61643;49.564;17.412;2023-02-01T09:31:36;4.15;;;2.45;;
73428;SDS011;61643;49.564;17.412;2023-02-01T09:34:02;4.70;;;2.10;;
73428;SDS011;61643;49.564;17.412;2023-02-01T09:36:28;3.45;;;1.95;;
73428;SDS011;61643;49.564;17.412;2023-02-01T09:38:53;3.73;;;2.23;;
73428;SDS011;61643;49.564;17.412;2023-02-01T09:46:46;4.28;;;1.52;;
73428;SDS011;61643;49.564;17.412;2023-02-01T09:49:13;3.63;;;1.80;;
73428;SDS011;61643;49.564;17.412;2023-02-01T09:51:46;5.13;;;1.60;;
73428;SDS011;61643;49.564;17.412;2023-02-01T09:54:25;3.40;;;1.95;;
73428;SDS011;61643;49.564;17.412;2023-02-01T09:57:03;4.75;;;1.17;;
73428;SDS011;61643;49.564;17.412;2023-02-01T09:59:39;2.13;;;1.10;;
73428;SDS011;61643;49.564;17.412;2023-02-01T10:02:19;2.58;;;1.10;;
73428;SDS011;61643;49.564;17.412;2023-02-01T10:04:47;3.55;;;1.20;;
73428;SDS011;61643;49.564;17.412;2023-02-01T10:07:18;4.13;;;1.00;;
73428;SDS011;61643;49.564;17.412;2023-02-01T10:21:37;2.60;;;0.95;;
73428;SDS011;61643;49.564;17.412;2023-02-01T10:24:25;2.15;;;1.10;;
73428;SDS011;61643;49.564;17.412;2023-02-01T10:27:25;2.25;;;0.95;;
73428;SDS011;61643;49.564;17.412;2023-02-01T10:29:55;1.02;;;0.70;;
73428;SDS011;61643;49.564;17.412;2023-02-01T10:32:28;2.40;;;1.10;;
73428;SDS011;61643;49.564;17.412;2023-02-01T10:35:00;3.75;;;1.08;;
73428;SDS011;61643;49.564;17.412;2023-02-01T10:37:32;2.53;;;1.30;;
73428;SDS011;61643;49.564;17.412;2023-02-01T10:40:16;1.20;;;1.00;;
73428;SDS011;61643;49.564;17.412;2023-02-01T10:42:46;4.05;;;1.10;;
73428;SDS011;61643;49.564;17.412;2023-02-01T10:45:22;4.30;;;1.10;;
73428;SDS011;61643;49.564;17.412;2023-02-01T10:47:51;1.45;;;1.17;;
73428;SDS011;61643;49.564;17.412;2023-02-01T10:52:52;3.05;;;1.30;;
73428;SDS011;61643;49.564;17.412;2023-02-01T10:55:26;2.08;;;1.15;;
73428;SDS011;61643;49.564;17.412;2023-02-01T10:57:55;3.13;;;1.15;;
73428;SDS011;61643;49.564;17.412;2023-02-01T11:00:25;2.67;;;1.00;;
73428;SDS011;61643;49.564;17.412;2023-02-01T11:02:52;1.83;;;0.90;;
73428;SDS011;61643;49.564;17.412;2023-02-01T11:05:18;1.83;;;0.88;;
73428;SDS011;61643;49.564;17.412;2023-02-01T11:07:54;2.28;;;1.10;;
73428;SDS011;61643;49.564;17.412;2023-02-01T11:13:03;3.55;;;1.00;;
73428;SDS011;61643;49.564;17.412;2023-02-01T11:15:29;4.50;;;1.20;;
73428;SDS011;61643;49.564;17.412;2023-02-01T11:17:55;3.72;;;1.60;;
73428;SDS011;61643;49.564;17.412;2023-02-01T11:23:11;4.13;;;1.50;;
73428;SDS011;61643;49.564;17.412;2023-02-01T11:25:39;3.50;;;1.58;;
73428;SDS011;61643;49.564;17.412;2023-02-01T11:28:14;2.22;;;1.45;;
73428;SDS011;61643;49.564;17.412;2023-02-01T11:30:40;2.38;;;1.35;;
73428;SDS011;61643;49.564;17.412;2023-02-01T11:33:09;4.15;;;1.55;;
73428;SDS011;61643;49.564;17.412;2023-02-01T11:35:38;4.65;;;1.48;;
73428;SDS011;61643;49.564;17.412;2023-02-01T11:38:20;2.78;;;1.27;;
73428;SDS011;61643;49.564;17.412;2023-02-01T11:40:47;2.50;;;1.20;;
73428;SDS011;61643;49.564;17.412;2023-02-01T11:43:27;2.35;;;1.25;;
73428;SDS011;61643;49.564;17.412;2023-02-01T11:45:57;2.55;;;1.55;;
73428;SDS011;61643;49.564;17.412;2023-02-01T11:48:28;2.90;;;1.48;;
73428;SDS011;61643;49.564;17.412;2023-02-01T12:10:29;2.83;;;1.40;;
73428;SDS011;61643;49.564;17.412;2023-02-01T12:15:45;2.47;;;1.60;;
73428;SDS011;61643;49.564;17.412;2023-02-01T12:43:25;3.23;;;1.47;;
73428;SDS011;61643;49.564;17.412;2023-02-01T12:46:23;5.47;;;1.45;;
73428;SDS011;61643;49.564;17.412;2023-02-01T12:48:56;3.63;;;1.30;;
73428;SDS011;61643;49.564;17.412;2023-02-01T12:51:27;4.45;;;1.30;;
73428;SDS011;61643;49.564;17.412;2023-02-01T12:53:59;4.82;;;1.58;;
73428;SDS011;61643;49.564;17.412;2023-02-01T12:59:27;3.15;;;1.50;;
73428;SDS011;61643;49.564;17.412;2023-02-01T13:01:56;3.75;;;1.10;;
73428;SDS011;61643;49.564;17.412;2023-02-01T13:04:28;3.05;;;1.20;;
73428;SDS011;61643;49.564;17.412;2023-02-01T13:07:18;3.65;;;1.10;;
73428;SDS011;61643;49.564;17.412;2023-02-01T13:09:51;1.95;;;1.00;;
73428;SDS011;61643;49.564;17.412;2023-02-01T13:12:24;1.67;;;1.17;;
73428;SDS011;61643;49.564;17.412;2023-02-01T13:14:58;6.35;;;1.20;;
73428;SDS011;61643;49.564;17.412;2023-02-01T13:17:29;1.75;;;1.08;;
73428;SDS011;61643;49.564;17.412;2023-02-01T13:23:04;1.88;;;1.00;;
73428;SDS011;61643;49.564;17.412;2023-02-01T13:26:06;1.73;;;1.08;;
73428;SDS011;61643;49.564;17.412;2023-02-01T13:28:26;3.38;;;1.10;;
73428;SDS011;61643;49.564;17.412;2023-02-01T13:42:13;1.65;;;0.77;;
73428;SDS011;61643;49.564;17.412;2023-02-01T13:45:03;2.88;;;1.33;;
73428;SDS011;61643;49.564;17.412;2023-02-01T13:47:39;2.53;;;1.40;;
73428;SDS011;61643;49.564;17.412;2023-02-01T13:50:18;1.75;;;1.05;;
73428;SDS011;61643;49.564;17.412;2023-02-01T13:52:45;2.10;;;1.10;;
73428;SDS011;61643;49.564;17.412;2023-02-01T13:57:50;3.73;;;1.33;;
73428;SDS011;61643;49.564;17.412;2023-02-01T14:00:25;2.20;;;1.05;;
73428;SDS011;61643;49.564;17.412;2023-02-01T14:13:30;1.85;;;1.30;;
73428;SDS011;61643;49.564;17.412;2023-02-01T14:23:55;0.90;;;0.80;;
73428;SDS011;61643;49.564;17.412;2023-02-01T14:26:24;2.28;;;1.25;;
73428;SDS011;61643;49.564;17.412;2023-02-01T14:28:54;3.45;;;1.48;;
73428;SDS011;61643;49.564;17.412;2023-02-01T14:31:33;4.13;;;1.50;;
73428;SDS011;61643;49.564;17.412;2023-02-01T14:34:50;2.38;;;1.13;;
73428;SDS011;61643;49.564;17.412;2023-02-01T14:36:56;5.40;;;2.00;;
73428;SDS011;61643;49.564;17.412;2023-02-01T14:39:31;3.55;;;1.65;;
73428;SDS011;61643;49.564;17.412;2023-02-01T14:42:05;2.00;;;1.50;;
73428;SDS011;61643;49.564;17.412;2023-02-01T14:44:51;2.55;;;1.33;;
73428;SDS011;61643;49.564;17.412;2023-02-01T14:49:53;5.78;;;2.90;;
73428;SDS011;61643;49.564;17.412;2023-02-01T14:52:35;5.63;;;2.22;;
73428;SDS011;61643;49.564;17.412;2023-02-01T14:55:06;5.40;;;2.35;;
73428;SDS011;61643;49.564;17.412;2023-02-01T14:57:39;3.90;;;1.75;;
73428;SDS011;61643;49.564;17.412;2023-02-01T15:00:28;3.20;;;2.10;;
73428;SDS011;61643;49.564;17.412;2023-02-01T15:02:54;3.85;;;1.33;;
73428;SDS011;61643;49.564;17.412;2023-02-01T15:05:40;3.92;;;1.65;;
73428;SDS011;61643;49.564;17.412;2023-02-01T15:08:14;3.67;;;1.57;;
73428;SDS011;61643;49.564;17.412;2023-02-01T15:10:45;3.28;;;1.40;;
73428;SDS011;61643;49.564;17.412;2023-02-01T15:13:26;5.18;;;1.60;;
73428;SDS011;61643;49.564;17.412;2023-02-01T15:18:37;4.70;;;1.67;;
73428;SDS011;61643;49.564;17.412;2023-02-01T15:21:04;3.08;;;1.90;;
73428;SDS011;61643;49.564;17.412;2023-02-01T15:23:31;4.13;;;2.22;;
73428;SDS011;61643;49.564;17.412;2023-02-01T15:25:57;5.50;;;2.03;;
73428;SDS011;61643;49.564;17.412;2023-02-01T15:28:22;6.00;;;2.10;;
73428;SDS011;61643;49.564;17.412;2023-02-01T15:30:59;3.72;;;1.95;;
73428;SDS011;61643;49.564;17.412;2023-02-01T15:46:11;4.43;;;2.13;;
73428;SDS011;61643;49.564;17.412;2023-02-01T15:48:51;7.78;;;2.97;;
73428;SDS011;61643;49.564;17.412;2023-02-01T15:51:22;8.38;;;3.33;;
73428;SDS011;61643;49.564;17.412;2023-02-01T15:53:56;10.15;;;3.90;;
73428;SDS011;61643;49.564;17.412;2023-02-01T15:56:29;11.73;;;4.80;;
73428;SDS011;61643;49.564;17.412;2023-02-01T15:59:00;25.65;;;8.02;;
73428;SDS011;61643;49.564;17.412;2023-02-01T16:01:27;22.88;;;8.80;;
73428;SDS011;61643;49.564;17.412;2023-02-01T16:04:04;10.63;;;5.40;;
73428;SDS011;61643;49.564;17.412;2023-02-01T16:07:01;18.15;;;6.70;;
73428;SDS011;61643;49.564;17.412;2023-02-01T16:10:16;12.88;;;5.32;;
73428;SDS011;61643;49.564;17.412;2023-02-01T16:15:08;17.05;;;6.47;;
73428;SDS011;61643;49.564;17.412;2023-02-01T16:17:34;12.52;;;4.72;;
73428;SDS011;61643;49.564;17.412;2023-02-01T16:19:59;10.23;;;3.90;;
73428;SDS011;61643;49.564;17.412;2023-02-01T16:22:25;7.83;;;4.10;;
73428;SDS011;61643;49.564;17.412;2023-02-01T16:24:50;6.25;;;2.53;;
73428;SDS011;61643;49.564;17.412;2023-02-01T16:27:15;7.03;;;2.60;;
73428;SDS011;61643;49.564;17.412;2023-02-01T16:29:41;6.45;;;2.45;;
73428;SDS011;61643;49.564;17.412;2023-02-01T16:32:10;6.68;;;2.70;;
73428;SDS011;61643;49.564;17.412;2023-02-01T16:34:42;6.35;;;3.30;;
73428;SDS011;61643;49.564;17.412;2023-02-01T16:37:10;24.40;;;11.40;;
73428;SDS011;61643;49.564;17.412;2023-02-01T16:39:37;32.90;;;11.80;;
73428;SDS011;61643;49.564;17.412;2023-02-01T16:42:08;45.37;;;18.43;;
73428;SDS011;61643;49.564;17.412;2023-02-01T16:44:35;27.35;;;11.30;;
73428;SDS011;61643;49.564;17.412;2023-02-01T16:47:01;33.60;;;16.43;;
73428;SDS011;61643;49.564;17.412;2023-02-01T16:49:26;22.90;;;14.05;;
73428;SDS011;61643;49.564;17.412;2023-02-01T16:51:52;11.97;;;8.27;;
73428;SDS011;61643;49.564;17.412;2023-02-01T16:54:22;11.55;;;6.05;;
73428;SDS011;61643;49.564;17.412;2023-02-01T16:56:47;25.42;;;9.35;;
73428;SDS011;61643;49.564;17.412;2023-02-01T16:59:13;10.05;;;4.40;;
73428;SDS011;61643;49.564;17.412;2023-02-01T17:01:39;6.32;;;2.72;;
73428;SDS011;61643;49.564;17.412;2023-02-01T17:04:06;6.13;;;3.33;;
73428;SDS011;61643;49.564;17.412;2023-02-01T17:06:32;5.35;;;2.60;;
73428;SDS011;61643;49.564;17.412;2023-02-01T17:08:58;8.10;;;3.40;;
73428;SDS011;61643;49.564;17.412;2023-02-01T17:11:25;7.40;;;3.25;;
73428;SDS011;61643;49.564;17.412;2023-02-01T17:13:52;13.80;;;4.68;;
73428;SDS011;61643;49.564;17.412;2023-02-01T17:21:48;7.00;;;3.08;;
73428;SDS011;61643;49.564;17.412;2023-02-01T17:24:17;3.45;;;1.63;;
73428;SDS011;61643;49.564;17.412;2023-02-01T17:26:44;3.22;;;1.75;;
73428;SDS011;61643;49.564;17.412;2023-02-01T17:29:10;8.13;;;2.08;;
73428;SDS011;61643;49.564;17.412;2023-02-01T17:31:37;3.78;;;2.00;;
73428;SDS011;61643;49.564;17.412;2023-02-01T17:34:05;5.03;;;1.85;;
73428;SDS011;61643;49.564;17.412;2023-02-01T17:36:30;4.28;;;2.10;;
73428;SDS011;61643;49.564;17.412;2023-02-01T17:38:56;6.00;;;2.58;;